createdAt,value
2018-03-31T00:01:08.813Z,97318.65
2018-03-31T00:03:36.851Z,97311.67
2018-03-31T00:06:05.602Z,97309.83
2018-03-31T00:08:33.742Z,97305.20
2018-03-31T00:11:03.366Z,97307.66
2018-03-31T00:13:31.171Z,97313.63
2018-03-31T00:15:59.596Z,97314.78
2018-03-31T00:18:27.477Z,97320.30
2018-03-31T00:20:56.454Z,97315.09
2018-03-31T00:23:25.154Z,97323.42
2018-03-31T00:25:54.304Z,97313.95
2018-03-31T00:28:23.195Z,97315.15
2018-03-31T00:30:52.327Z,97312.48
2018-03-31T00:33:20.747Z,97317.41
2018-03-31T00:35:49.387Z,97320.38
2018-03-31T00:38:18.000Z,97314.72
2018-03-31T00:40:46.228Z,97321.61
2018-03-31T00:43:15.750Z,97319.86
2018-03-31T00:45:43.557Z,97330.08
2018-03-31T00:48:12.139Z,97330.71
2018-03-31T00:50:40.718Z,97325.50
2018-03-31T00:53:10.371Z,97324.40
2018-03-31T00:55:38.179Z,97317.09
2018-03-31T00:58:07.337Z,97309.56
2018-03-31T01:00:35.544Z,97294.67
2018-03-31T01:03:04.265Z,97287.97
2018-03-31T01:05:34.844Z,97292.04
2018-03-31T01:08:02.954Z,97283.98
2018-03-31T01:10:32.366Z,97275.92
2018-03-31T01:13:01.490Z,97277.03
2018-03-31T01:15:29.754Z,97277.45
2018-03-31T01:17:58.440Z,97280.27
2018-03-31T01:20:27.298Z,97282.66
2018-03-31T01:22:55.523Z,97282.98
2018-03-31T01:25:24.194Z,97293.59
2018-03-31T01:27:51.990Z,97301.59
2018-03-31T01:30:21.456Z,97309.48
2018-03-31T01:32:50.616Z,97305.92
2018-03-31T01:35:18.693Z,97315.62
2018-03-31T01:37:48.560Z,97312.66
2018-03-31T01:40:17.374Z,97322.80
2018-03-31T01:42:46.120Z,97314.61
2018-03-31T01:45:14.706Z,97315.20
2018-03-31T01:47:43.348Z,97312.17
2018-03-31T01:50:12.438Z,97310.06
2018-03-31T01:52:42.248Z,97311.14
2018-03-31T01:55:11.549Z,97310.78
2018-03-31T01:57:41.317Z,97305.92
2018-03-31T02:00:11.451Z,97307.86
2018-03-31T02:02:41.109Z,97311.00
2018-03-31T02:05:08.945Z,97309.60
2018-03-31T02:07:36.755Z,97315.21
2018-03-31T02:10:06.960Z,97316.11
2018-03-31T02:12:35.635Z,97319.45
2018-03-31T02:15:04.213Z,97311.47
2018-03-31T02:17:32.033Z,97308.69
2018-03-31T02:20:00.280Z,97306.41
2018-03-31T02:22:28.540Z,97299.14
2018-03-31T02:24:57.456Z,97299.91
2018-03-31T02:27:26.031Z,97299.27
2018-03-31T02:29:55.172Z,97308.34
2018-03-31T02:32:22.980Z,97304.77
2018-03-31T02:34:50.887Z,97304.27
2018-03-31T02:37:19.584Z,97307.45
2018-03-31T02:39:47.414Z,97302.80
2018-03-31T02:42:15.225Z,97316.33
2018-03-31T02:44:45.535Z,97310.33
2018-03-31T02:47:13.976Z,97306.32
2018-03-31T02:49:43.199Z,97304.00
2018-03-31T02:52:11.336Z,97304.56
2018-03-31T02:54:40.182Z,97309.35
2018-03-31T02:57:08.500Z,97312.63
2018-03-31T02:59:37.323Z,97312.69
2018-03-31T03:02:06.157Z,97307.55
2018-03-31T03:04:33.961Z,97314.30
2018-03-31T03:07:01.841Z,97309.55
2018-03-31T03:09:30.011Z,97304.15
2018-03-31T03:11:58.150Z,97299.71
2018-03-31T03:14:26.738Z,97301.61
2018-03-31T03:16:55.258Z,97305.42
2018-03-31T03:19:24.517Z,97302.51
2018-03-31T03:21:54.134Z,97304.56
2018-03-31T03:24:21.688Z,97306.34
2018-03-31T03:26:50.046Z,97297.95
2018-03-31T03:29:18.700Z,97296.73
2018-03-31T03:31:46.624Z,97293.52
2018-03-31T03:34:14.190Z,97292.05
2018-03-31T03:36:42.761Z,97294.16
2018-03-31T03:39:10.791Z,97298.50
2018-03-31T03:41:38.568Z,97296.73
2018-03-31T03:44:07.282Z,97293.14
2018-03-31T03:46:35.279Z,97298.70
2018-03-31T03:49:03.819Z,97301.94
2018-03-31T03:51:32.475Z,97301.52
2018-03-31T03:54:00.022Z,97306.44
2018-03-31T03:56:29.119Z,97309.33
2018-03-31T03:58:58.008Z,97303.31
2018-03-31T04:01:25.621Z,97298.13
2018-03-31T04:03:54.074Z,97294.20
2018-03-31T04:06:21.590Z,97298.56
2018-03-31T04:08:49.705Z,97298.98
2018-03-31T04:11:17.302Z,97300.84
2018-03-31T04:13:45.530Z,97300.14
2018-03-31T04:16:13.053Z,97297.02
2018-03-31T04:18:40.980Z,97299.55
2018-03-31T04:21:08.510Z,97302.41
2018-03-31T04:23:36.913Z,97300.78
2018-03-31T04:26:04.505Z,97299.41
2018-03-31T04:28:33.009Z,97300.36
2018-03-31T04:31:01.039Z,97305.88
2018-03-31T04:33:29.070Z,97301.20
2018-03-31T04:35:58.502Z,97297.83
2018-03-31T04:38:26.826Z,97297.28
2018-03-31T04:40:55.501Z,97300.05
2018-03-31T04:43:23.718Z,97302.09
2018-03-31T04:45:51.279Z,97303.59
2018-03-31T04:48:19.657Z,97300.77
2018-03-31T04:50:48.230Z,97302.53
2018-03-31T04:53:15.849Z,97306.61
2018-03-31T04:55:44.159Z,97307.33
2018-03-31T04:58:13.373Z,97306.73
2018-03-31T05:00:45.615Z,97307.45
2018-03-31T05:03:14.147Z,97307.27
2018-03-31T05:05:41.952Z,97308.52
2018-03-31T05:08:10.196Z,97305.66
2018-03-31T05:10:37.804Z,97313.36
2018-03-31T05:13:06.284Z,97317.37
2018-03-31T05:15:34.149Z,97310.32
2018-03-31T05:18:01.667Z,97317.08
2018-03-31T05:20:30.093Z,97322.09
2018-03-31T05:22:57.617Z,97322.80
2018-03-31T05:25:26.392Z,97320.48
2018-03-31T05:27:54.362Z,97325.31
2018-03-31T05:30:21.917Z,97332.61
2018-03-31T05:32:49.579Z,97326.92
2018-03-31T05:35:17.380Z,97336.19
2018-03-31T05:37:46.410Z,97334.45
2018-03-31T05:40:14.918Z,97332.50
2018-03-31T05:42:43.912Z,97333.95
2018-03-31T05:45:12.806Z,97328.14
2018-03-31T05:47:41.300Z,97334.83
2018-03-31T05:50:09.961Z,97327.66
2018-03-31T05:52:37.559Z,97330.76
2018-03-31T05:55:05.132Z,97329.03
2018-03-31T05:57:35.441Z,97333.82
2018-03-31T06:00:03.330Z,97332.44
2018-03-31T06:02:34.085Z,97332.38
2018-03-31T06:05:02.714Z,97332.03
2018-03-31T06:07:33.457Z,97336.09
2018-03-31T06:10:02.216Z,97334.95
2018-03-31T06:12:30.604Z,97337.53
2018-03-31T06:14:59.757Z,97341.70
2018-03-31T06:17:28.161Z,97335.23
2018-03-31T06:19:55.685Z,97337.70
2018-03-31T06:22:24.490Z,97342.30
2018-03-31T06:24:52.873Z,97347.58
2018-03-31T06:27:20.588Z,97347.68
2018-03-31T06:29:48.805Z,97354.68
2018-03-31T06:32:17.553Z,97353.13
2018-03-31T06:34:45.286Z,97352.36
2018-03-31T06:37:13.999Z,97355.66
2018-03-31T06:39:44.283Z,97354.16
2018-03-31T06:42:13.336Z,97356.89
2018-03-31T06:44:41.109Z,97355.52
2018-03-31T06:47:10.375Z,97353.54
2018-03-31T06:49:38.511Z,97355.94
2018-03-31T06:52:07.721Z,97358.61
2018-03-31T06:54:35.599Z,97359.42
2018-03-31T06:57:04.793Z,97363.28
2018-03-31T06:59:33.247Z,97361.84
2018-03-31T07:02:01.640Z,97358.73
2018-03-31T07:04:29.208Z,97360.30
2018-03-31T07:06:57.723Z,97349.94
2018-03-31T07:09:26.293Z,97349.98
2018-03-31T07:11:54.110Z,97356.86
2018-03-31T07:14:23.274Z,97354.16
2018-03-31T07:16:52.396Z,97354.06
2018-03-31T07:19:20.722Z,97349.08
2018-03-31T07:21:49.427Z,97353.70
2018-03-31T07:24:19.612Z,97351.78
2018-03-31T07:26:48.131Z,97351.17
2018-03-31T07:29:15.701Z,97356.17
2018-03-31T07:31:43.255Z,97354.95
2018-03-31T07:34:12.663Z,97348.33
2018-03-31T07:36:41.054Z,97353.28
2018-03-31T07:39:09.469Z,97347.45
2018-03-31T07:41:37.303Z,97348.44
2018-03-31T07:44:05.550Z,97357.32
2018-03-31T07:46:33.688Z,97349.77
2018-03-31T07:49:01.425Z,97349.20
2018-03-31T07:51:29.822Z,97343.33
2018-03-31T07:53:57.952Z,97344.38
2018-03-31T07:56:27.020Z,97352.36
2018-03-31T07:58:55.608Z,97344.43
2018-03-31T08:01:24.788Z,97344.87
2018-03-31T08:03:53.153Z,97345.25
2018-03-31T08:06:21.568Z,97346.50
2018-03-31T08:08:49.268Z,97350.20
2018-03-31T08:11:16.832Z,97346.90
2018-03-31T08:13:45.188Z,97348.90
2018-03-31T08:16:13.097Z,97350.00
2018-03-31T08:18:41.310Z,97348.80
2018-03-31T08:21:09.132Z,97342.84
2018-03-31T08:23:37.705Z,97348.28
2018-03-31T08:26:06.082Z,97349.67
2018-03-31T08:28:34.630Z,97348.80
2018-03-31T08:31:02.287Z,97354.23
2018-03-31T08:33:30.631Z,97350.47
2018-03-31T08:36:00.157Z,97358.57
2018-03-31T08:38:28.911Z,97357.70
2018-03-31T08:40:57.395Z,97354.95
2018-03-31T08:43:25.926Z,97354.84
2018-03-31T08:45:55.500Z,97353.25
2018-03-31T08:48:25.652Z,97359.00
2018-03-31T08:50:54.336Z,97352.98
2018-03-31T08:53:23.101Z,97345.91
2018-03-31T08:55:50.653Z,97352.92
2018-03-31T08:58:18.927Z,97359.19
2018-03-31T09:00:47.079Z,97353.42
2018-03-31T09:03:15.467Z,97354.94
2018-03-31T09:05:44.563Z,97354.52
2018-03-31T09:08:12.104Z,97356.41
2018-03-31T09:10:40.424Z,97360.30
2018-03-31T09:13:09.685Z,97360.48
2018-03-31T09:15:37.584Z,97361.03
2018-03-31T09:18:07.024Z,97357.05
2018-03-31T09:20:35.675Z,97361.08
2018-03-31T09:23:05.076Z,97359.02
2018-03-31T09:25:33.516Z,97364.06
2018-03-31T09:28:02.063Z,97357.22
2018-03-31T09:30:30.827Z,97363.96
2018-03-31T09:32:59.102Z,97371.22
2018-03-31T09:35:26.638Z,97371.26
2018-03-31T09:37:55.544Z,97369.33
2018-03-31T09:40:24.239Z,97366.88
2018-03-31T09:42:53.657Z,97376.11
2018-03-31T09:45:22.139Z,97376.16
2018-03-31T09:47:50.878Z,97372.85
2018-03-31T09:50:19.482Z,97378.05
2018-03-31T09:52:47.381Z,97379.06
2018-03-31T09:55:15.190Z,97380.39
2018-03-31T09:57:45.137Z,97381.56
2018-03-31T10:00:14.486Z,97380.90
2018-03-31T10:02:42.822Z,97382.49
2018-03-31T10:05:10.383Z,97374.66
2018-03-31T10:07:37.988Z,97375.48
2018-03-31T10:10:05.532Z,97378.67
2018-03-31T10:12:33.978Z,97374.09
2018-03-31T10:15:01.708Z,97379.35
2018-03-31T10:17:29.505Z,97378.77
2018-03-31T10:19:57.430Z,97375.70
2018-03-31T10:22:25.000Z,97377.36
2018-03-31T10:24:53.036Z,97369.31
2018-03-31T10:27:21.602Z,97363.16
2018-03-31T10:29:49.142Z,97357.63
2018-03-31T10:32:16.710Z,97354.68
2018-03-31T10:34:45.605Z,97347.48
2018-03-31T10:37:14.441Z,97351.16
2018-03-31T10:39:42.342Z,97349.70
2018-03-31T10:42:10.187Z,97356.84
2018-03-31T10:44:38.130Z,97344.88
2018-03-31T10:47:05.656Z,97345.98
2018-03-31T10:49:34.288Z,97341.26
2018-03-31T10:52:03.269Z,97343.22
2018-03-31T10:54:33.889Z,97346.17
2018-03-31T10:57:02.219Z,97348.28
2018-03-31T10:59:30.726Z,97337.89
2018-03-31T11:01:58.303Z,97342.69
2018-03-31T11:04:25.923Z,97337.66
2018-03-31T11:06:53.479Z,97335.30
2018-03-31T11:09:22.121Z,97335.65
2018-03-31T11:11:50.522Z,97325.64
2018-03-31T11:14:18.036Z,97328.23
2018-03-31T11:16:47.438Z,97325.86
2018-03-31T11:19:15.679Z,97325.56
2018-03-31T11:21:44.528Z,97324.52
2018-03-31T11:24:13.186Z,97329.09
2018-03-31T11:26:41.600Z,97326.37
2018-03-31T11:29:11.031Z,97327.69
2018-03-31T11:31:39.623Z,97326.97
2018-03-31T11:34:08.809Z,97326.80
2018-03-31T11:36:37.293Z,97327.02
2018-03-31T11:39:05.144Z,97326.64
2018-03-31T11:41:33.505Z,97328.86
2018-03-31T11:44:01.631Z,97324.64
2018-03-31T11:46:29.539Z,97325.58
2018-03-31T11:48:57.447Z,97319.13
2018-03-31T11:51:25.088Z,97320.39
2018-03-31T11:53:52.607Z,97322.27
2018-03-31T11:56:21.480Z,97321.38
2018-03-31T11:58:49.302Z,97322.44
2018-03-31T12:01:17.657Z,97311.00
2018-03-31T12:03:45.174Z,97311.11
2018-03-31T12:06:13.510Z,97314.84
2018-03-31T12:08:41.104Z,97320.92
2018-03-31T12:11:08.747Z,97320.23
2018-03-31T12:13:37.232Z,97325.84
2018-03-31T12:16:04.769Z,97315.30
2018-03-31T12:18:32.783Z,97317.98
2018-03-31T12:21:00.948Z,97312.66
2018-03-31T12:23:28.752Z,97313.28
2018-03-31T12:25:57.402Z,97317.43
2018-03-31T12:28:25.711Z,97310.92
2018-03-31T12:30:54.022Z,97314.16
2018-03-31T12:33:21.575Z,97314.73
2018-03-31T12:35:49.828Z,97305.91
2018-03-31T12:38:18.259Z,97308.31
2018-03-31T12:40:46.598Z,97309.83
2018-03-31T12:43:15.204Z,97310.16
2018-03-31T12:45:42.918Z,97303.05
2018-03-31T12:48:11.164Z,97304.92
2018-03-31T12:50:40.363Z,97293.30
2018-03-31T12:53:08.646Z,97291.30
2018-03-31T12:55:37.003Z,97285.41
2018-03-31T12:58:05.911Z,97290.81
2018-03-31T13:00:33.489Z,97290.34
2018-03-31T13:03:01.725Z,97290.44
2018-03-31T13:05:30.091Z,97289.05
2018-03-31T13:07:57.864Z,97281.00
2018-03-31T13:10:26.448Z,97281.38
2018-03-31T13:12:53.976Z,97281.00
2018-03-31T13:15:21.523Z,97285.81
2018-03-31T13:17:49.783Z,97284.24
2018-03-31T13:20:18.177Z,97290.81
2018-03-31T13:22:45.921Z,97287.26
2018-03-31T13:25:13.819Z,97292.48
2018-03-31T13:27:42.024Z,97284.56
2018-03-31T13:30:10.471Z,97283.92
2018-03-31T13:32:40.329Z,97279.88
2018-03-31T13:35:10.459Z,97280.46
2018-03-31T13:37:38.304Z,97282.64
2018-03-31T13:40:05.830Z,97277.24
2018-03-31T13:42:34.482Z,97283.50
2018-03-31T13:45:02.362Z,97283.65
2018-03-31T13:47:31.082Z,97283.23
2018-03-31T13:49:59.558Z,97286.68
2018-03-31T13:52:28.337Z,97279.37
2018-03-31T13:54:57.071Z,97276.00
2018-03-31T13:57:25.194Z,97274.03
2018-03-31T13:59:52.722Z,97278.19
2018-03-31T14:02:22.190Z,97273.63
2018-03-31T14:04:50.585Z,97272.98
2018-03-31T14:07:18.455Z,97274.80
2018-03-31T14:09:47.860Z,97277.19
2018-03-31T14:12:16.306Z,97270.32
2018-03-31T14:14:43.848Z,97275.06
2018-03-31T14:17:11.457Z,97278.59
2018-03-31T14:19:39.035Z,97279.58
2018-03-31T14:22:06.638Z,97280.85
2018-03-31T14:24:36.073Z,97280.21
2018-03-31T14:27:03.627Z,97280.07
2018-03-31T14:29:31.148Z,97285.43
2018-03-31T14:32:00.073Z,97290.04
2018-03-31T14:34:27.605Z,97295.92
2018-03-31T14:36:57.124Z,97290.91
2018-03-31T14:39:25.475Z,97286.51
2018-03-31T14:41:53.906Z,97288.92
2018-03-31T14:44:21.482Z,97295.16
2018-03-31T14:46:49.243Z,97299.12
2018-03-31T14:49:16.835Z,97297.44
2018-03-31T14:51:44.584Z,97299.66
2018-03-31T14:54:12.917Z,97303.49
2018-03-31T14:56:40.441Z,97308.73
2018-03-31T14:59:11.905Z,97303.85
2018-03-31T15:01:40.051Z,97307.24
2018-03-31T15:04:08.531Z,97306.67
2018-03-31T15:06:37.870Z,97301.19
2018-03-31T15:09:05.778Z,97296.16
2018-03-31T15:11:34.340Z,97306.16
2018-03-31T15:14:03.352Z,97309.59
2018-03-31T15:16:30.991Z,97306.94
2018-03-31T15:19:00.586Z,97308.58
2018-03-31T15:21:29.360Z,97306.41
2018-03-31T15:23:57.605Z,97304.77
2018-03-31T15:26:25.947Z,97304.88
2018-03-31T15:28:53.870Z,97304.73
2018-03-31T15:31:21.770Z,97308.21
2018-03-31T15:33:51.435Z,97304.06
2018-03-31T15:36:20.043Z,97303.06
2018-03-31T15:38:48.264Z,97303.31
2018-03-31T15:41:16.523Z,97303.05
2018-03-31T15:43:44.389Z,97302.65
2018-03-31T15:46:12.783Z,97306.84
2018-03-31T15:48:41.532Z,97307.91
2018-03-31T15:51:09.316Z,97303.06
2018-03-31T15:53:38.172Z,97309.73
2018-03-31T15:56:07.514Z,97307.31
2018-03-31T15:58:35.044Z,97309.81
2018-03-31T16:01:04.745Z,97315.40
2018-03-31T16:03:33.195Z,97306.52
2018-03-31T16:06:01.287Z,97307.02
2018-03-31T16:08:29.043Z,97305.48
2018-03-31T16:10:57.033Z,97310.27
2018-03-31T16:13:24.585Z,97303.67
2018-03-31T16:15:52.697Z,97311.66
2018-03-31T16:18:21.441Z,97308.34
2018-03-31T16:20:51.964Z,97313.66
2018-03-31T16:23:20.813Z,97307.23
2018-03-31T16:25:50.385Z,97312.98
2018-03-31T16:28:18.836Z,97316.32
2018-03-31T16:30:47.289Z,97315.66
2018-03-31T16:33:16.514Z,97318.89
2018-03-31T16:35:46.477Z,97319.80
2018-03-31T16:38:14.024Z,97320.72
2018-03-31T16:40:42.216Z,97327.53
2018-03-31T16:43:11.516Z,97325.82
2018-03-31T16:45:40.189Z,97327.05
2018-03-31T16:48:09.527Z,97328.98
2018-03-31T16:50:37.980Z,97328.84
2018-03-31T16:53:06.431Z,97336.36
2018-03-31T16:55:35.959Z,97337.69
2018-03-31T16:58:06.053Z,97326.20
2018-03-31T17:00:34.464Z,97332.70
2018-03-31T17:03:06.357Z,97336.71
2018-03-31T17:05:34.310Z,97335.09
2018-03-31T17:08:03.293Z,97332.92
2018-03-31T17:10:34.445Z,97331.58
2018-03-31T17:13:03.344Z,97338.36
2018-03-31T17:15:33.039Z,97332.50
2018-03-31T17:18:03.981Z,97343.33
2018-03-31T17:20:39.355Z,97336.67
2018-03-31T17:23:06.997Z,97345.02
2018-03-31T17:25:36.417Z,97341.37
2018-03-31T17:28:05.020Z,97341.66
2018-03-31T17:30:34.085Z,97339.07
2018-03-31T17:33:04.057Z,97338.98
2018-03-31T17:35:33.506Z,97342.97
2018-03-31T17:38:01.687Z,97342.98
2018-03-31T17:40:33.010Z,97344.48
2018-03-31T17:43:01.738Z,97344.48
2018-03-31T17:45:29.308Z,97357.66
2018-03-31T17:47:57.988Z,97357.10
2018-03-31T17:50:28.684Z,97369.12
2018-03-31T17:52:57.992Z,97363.64
2018-03-31T17:55:26.233Z,97365.27
2018-03-31T17:57:54.927Z,97363.31
2018-03-31T18:00:23.265Z,97369.30
2018-03-31T18:02:51.966Z,97369.64
2018-03-31T18:05:21.387Z,97374.54
2018-03-31T18:07:48.988Z,97369.55
2018-03-31T18:10:17.252Z,97373.42
2018-03-31T18:12:45.742Z,97373.13
2018-03-31T18:15:14.928Z,97376.55
2018-03-31T18:17:43.444Z,97380.28
2018-03-31T18:20:10.978Z,97383.21
2018-03-31T18:22:38.869Z,97387.21
2018-03-31T18:25:07.396Z,97381.84
2018-03-31T18:27:38.224Z,97389.98
2018-03-31T18:30:08.474Z,97392.36
2018-03-31T18:32:37.905Z,97401.63
2018-03-31T18:35:07.124Z,97398.06
2018-03-31T18:37:34.689Z,97401.69
2018-03-31T18:40:03.591Z,97400.03
2018-03-31T18:42:31.401Z,97403.02
2018-03-31T18:44:59.665Z,97409.72
2018-03-31T18:47:28.115Z,97408.14
2018-03-31T18:49:55.671Z,97410.84
2018-03-31T18:52:23.236Z,97411.47
2018-03-31T18:54:51.066Z,97417.11
2018-03-31T18:57:18.615Z,97419.08
2018-03-31T18:59:46.190Z,97423.31
2018-03-31T19:02:14.900Z,97426.66
2018-03-31T19:04:43.146Z,97432.27
2018-03-31T19:07:12.344Z,97434.78
2018-03-31T19:09:39.931Z,97434.81
2018-03-31T19:12:08.101Z,97443.66
2018-03-31T19:14:44.217Z,97441.16
2018-03-31T19:17:15.829Z,97440.95
2018-03-31T19:19:45.005Z,97445.75
2018-03-31T19:22:15.506Z,97448.83
2018-03-31T19:24:49.453Z,97450.77
2018-03-31T19:27:18.444Z,97453.08
2018-03-31T19:29:47.184Z,97453.15
2018-03-31T19:32:15.971Z,97449.96
2018-03-31T19:34:43.808Z,97451.28
2018-03-31T19:37:12.339Z,97452.38
2018-03-31T19:39:45.410Z,97454.27
2018-03-31T19:42:16.481Z,97464.42
2018-03-31T19:44:45.106Z,97460.66
2018-03-31T19:47:14.251Z,97457.88
2018-03-31T19:49:43.593Z,97465.39
2018-03-31T19:52:12.062Z,97467.44
2018-03-31T19:54:40.280Z,97462.50
2018-03-31T19:57:08.229Z,97474.74
2018-03-31T19:59:36.156Z,97471.83
2018-03-31T20:02:06.421Z,97472.58
2018-03-31T20:04:34.985Z,97475.11
2018-03-31T20:07:02.499Z,97478.80
2018-03-31T20:09:32.333Z,97489.98
2018-03-31T20:12:01.108Z,97486.92
2018-03-31T20:14:32.684Z,97491.48
2018-03-31T20:17:01.055Z,97490.05
2018-03-31T20:19:29.337Z,97497.20
2018-03-31T20:21:59.247Z,97500.84
2018-03-31T20:24:27.302Z,97505.06
2018-03-31T20:26:54.830Z,97501.72
2018-03-31T20:29:23.314Z,97510.09
2018-03-31T20:31:51.215Z,97507.44
2018-03-31T20:34:19.095Z,97508.61
2018-03-31T20:36:47.445Z,97509.37
2018-03-31T20:39:16.230Z,97507.14
2018-03-31T20:41:44.775Z,97512.45
2018-03-31T20:44:13.139Z,97506.66
2018-03-31T20:46:42.958Z,97512.52
2018-03-31T20:49:10.926Z,97515.10
2018-03-31T20:51:38.493Z,97513.30
2018-03-31T20:54:07.099Z,97517.90
2018-03-31T20:56:35.627Z,97512.22
2018-03-31T20:59:04.359Z,97518.95
2018-03-31T21:01:33.304Z,97517.27
2018-03-31T21:04:00.858Z,97523.27
2018-03-31T21:06:29.150Z,97519.79
2018-03-31T21:08:56.715Z,97526.44
2018-03-31T21:11:24.742Z,97527.20
2018-03-31T21:13:52.264Z,97526.17
2018-03-31T21:16:23.282Z,97530.28
2018-03-31T21:18:52.644Z,97530.81
2018-03-31T21:21:20.198Z,97535.84
2018-03-31T21:23:48.004Z,97529.18
2018-03-31T21:26:16.416Z,97531.58
2018-03-31T21:28:44.639Z,97533.26
2018-03-31T21:31:12.270Z,97528.61
2018-03-31T21:33:40.128Z,97535.28
2018-03-31T21:36:07.640Z,97540.20
2018-03-31T21:38:35.748Z,97542.77
2018-03-31T21:41:04.083Z,97541.66
2018-03-31T21:43:32.615Z,97548.33
2018-03-31T21:46:01.100Z,97543.08
2018-03-31T21:48:29.459Z,97546.37
2018-03-31T21:50:57.024Z,97547.07
2018-03-31T21:53:25.591Z,97549.34
2018-03-31T21:55:53.358Z,97549.48
2018-03-31T21:58:22.206Z,97547.13
2018-03-31T22:00:50.636Z,97544.56
2018-03-31T22:03:19.479Z,97546.66
2018-03-31T22:05:47.265Z,97541.78
2018-03-31T22:08:16.409Z,97543.27
2018-03-31T22:10:44.770Z,97546.37
2018-03-31T22:13:20.244Z,97550.48
2018-03-31T22:15:49.867Z,97555.63
2018-03-31T22:18:18.260Z,97554.93
2018-03-31T22:20:46.692Z,97560.08
2018-03-31T22:23:16.924Z,97557.41
2018-03-31T22:25:45.079Z,97563.26
2018-03-31T22:28:12.680Z,97555.20
2018-03-31T22:30:40.219Z,97561.81
2018-03-31T22:33:07.864Z,97558.31
2018-03-31T22:35:37.288Z,97560.13
2018-03-31T22:38:06.323Z,97560.97
2018-03-31T22:40:34.080Z,97565.99
2018-03-31T22:43:03.438Z,97569.09
2018-03-31T22:45:31.589Z,97568.81
2018-03-31T22:48:00.744Z,97569.23
2018-03-31T22:50:29.516Z,97575.14
2018-03-31T22:52:57.694Z,97571.72
2018-03-31T22:55:25.207Z,97578.55
2018-03-31T22:57:52.816Z,97572.30
2018-03-31T23:00:20.357Z,97574.95
2018-03-31T23:02:48.743Z,97581.70
2018-03-31T23:05:17.220Z,97572.17
2018-03-31T23:07:45.310Z,97582.66
2018-03-31T23:10:13.227Z,97586.14
2018-03-31T23:12:41.918Z,97590.63
2018-03-31T23:15:09.787Z,97597.94
2018-03-31T23:17:38.463Z,97601.34
2018-03-31T23:20:07.115Z,97606.63
2018-03-31T23:22:35.848Z,97605.98
2018-03-31T23:25:04.170Z,97614.59
2018-03-31T23:27:32.670Z,97617.38
2018-03-31T23:30:00.916Z,97617.98
2018-03-31T23:32:29.432Z,97623.75
2018-03-31T23:34:59.103Z,97632.86
2018-03-31T23:37:28.170Z,97623.30
2018-03-31T23:39:57.261Z,97630.28
2018-03-31T23:42:25.080Z,97630.86
2018-03-31T23:44:52.875Z,97638.96
2018-03-31T23:47:21.717Z,97647.23
2018-03-31T23:49:49.513Z,97651.85
2018-03-31T23:52:18.040Z,97640.93
2018-03-31T23:54:45.628Z,97639.81
2018-03-31T23:57:13.257Z,97633.67
2018-03-31T23:59:41.407Z,97635.45
